Time;durP1;ratioP1;P1;durP2;ratioP2;P2;SDS_P1;SDS_P2;PMS_P1;PMS_P2;Temp;Humidity;BMP_temperature;BMP_pressure;BME280_temperature;BME280_humidity;BME280_pressure;Samples;Min_cycle;Max_cycle;Signal;HPM_P1;HPM_P2
2023/05/11 00:03:11;;;;;;;2.23;1.80;;;;;;;17.61;57.19;98552.97;6954475;28;20297;-85
2023/05/11 00:06:32;;;;;;;2.53;1.80;;;;;;;17.47;57.88;98560.75;6954620;28;20275;-85
2023/05/11 00:09:54;;;;;;;3.00;2.10;;;;;;;17.23;58.25;98542.16;6955765;28;20345;-84
2023/05/11 00:13:15;;;;;;;3.33;2.00;;;;;;;17.30;58.83;98554.53;6955734;28;20296;-83
2023/05/11 00:16:37;;;;;;;2.50;1.80;;;;;;;17.48;57.21;98507.03;6956217;28;20262;-84
2023/05/11 00:20:00;;;;;;;2.20;2.00;;;;;;;17.51;57.69;98539.25;6956340;28;20348;-84
2023/05/11 00:23:21;;;;;;;1.70;1.60;;;;;;;17.58;57.43;98550.78;6955782;28;20703;-84
2023/05/11 00:26:43;;;;;;;1.70;1.60;;;;;;;17.62;57.18;98546.44;6957398;28;20249;-84
2023/05/11 00:30:05;;;;;;;2.77;1.70;;;;;;;17.42;57.71;98538.91;6957806;28;20228;-84
2023/05/11 00:33:27;;;;;;;2.00;1.80;;;;;;;17.50;56.96;98546.59;6957900;28;20296;-84
2023/05/11 00:36:49;;;;;;;6.43;1.83;;;;;;;17.49;56.99;98542.25;6958632;28;20282;-85
2023/05/11 00:40:12;;;;;;;2.20;2.00;;;;;;;17.38;57.08;98543.19;6957759;28;20210;-84
2023/05/11 00:43:34;;;;;;;5.83;1.87;;;;;;;17.49;56.90;98547.69;6958903;28;20233;-84
2023/05/11 00:46:55;;;;;;;1.93;1.80;;;;;;;17.36;57.48;98539.03;6960894;28;20310;-85
2023/05/11 00:50:18;;;;;;;4.90;2.20;;;;;;;17.37;57.11;98541.53;6970489;28;20207;-84
2023/05/11 00:53:41;;;;;;;4.67;1.80;;;;;;;17.04;58.82;98533.47;6964056;28;20198;-84
2023/05/11 00:57:03;;;;;;;3.73;2.20;;;;;;;17.15;58.22;98542.63;6970373;28;20234;-84
2023/05/11 01:00:25;;;;;;;4.77;2.20;;;;;;;16.98;58.59;98525.50;6972618;28;20662;-83
2023/05/11 01:03:47;;;;;;;2.30;2.20;;;;;;;17.18;58.73;98537.47;6969455;28;20751;-84
2023/05/11 01:07:13;;;;;;;2.00;1.90;;;;;;;17.10;58.40;98526.19;6947811;28;20241;-85
2023/05/11 01:10:42;;;;;;;1.97;1.87;;;;;;;17.21;57.66;98541.59;6947887;28;20248;-85
2023/05/11 01:14:07;;;;;;;6.20;2.20;;;;;;;16.91;59.16;98538.44;6947314;28;20191;-84
2023/05/11 01:17:36;;;;;;;2.77;2.23;;;;;;;16.39;59.96;98545.31;6947212;28;20286;-84
2023/05/11 01:21:00;;;;;;;2.13;2.03;;;;;;;16.79;59.23;98538.56;6947966;28;20232;-84
2023/05/11 01:24:32;;;;;;;4.80;3.60;;;;;;;16.77;59.80;98515.41;6947030;28;20320;-84
2023/05/11 01:28:10;;;;;;;4.10;3.63;;;;;;;17.08;59.15;98539.22;6946993;28;20315;-83
2023/05/11 01:31:34;;;;;;;3.17;2.23;;;;;;;16.86;58.41;98532.97;6947174;28;20240;-83
2023/05/11 01:35:02;;;;;;;3.00;2.23;;;;;;;16.77;59.55;98531.72;6947015;28;20217;-85
2023/05/11 01:38:24;;;;;;;3.77;2.30;;;;;;;17.01;59.36;98547.59;6946482;28;20293;-84
2023/05/11 01:41:48;;;;;;;3.77;2.60;;;;;;;17.01;59.16;98533.16;6948599;28;20242;-83
2023/05/11 01:45:11;;;;;;;2.83;2.03;;;;;;;17.07;58.52;98530.25;6952768;28;20825;-85
2023/05/11 01:48:39;;;;;;;2.20;2.10;;;;;;;17.12;58.06;98533.03;6952647;28;20676;-85
2023/05/11 01:52:01;;;;;;;3.10;2.00;;;;;;;17.11;58.17;98527.84;6952544;28;20201;-84
2023/05/11 01:55:23;;;;;;;7.90;2.30;;;;;;;16.94;57.98;98506.13;6952531;28;20365;-84
2023/05/11 01:58:45;;;;;;;2.30;2.10;;;;;;;17.21;58.11;98541.59;6952788;28;20296;-84
2023/05/11 02:02:08;;;;;;;2.10;1.90;;;;;;;17.17;58.70;98540.44;6951892;28;20306;-85
2023/05/11 02:05:31;;;;;;;3.30;2.00;;;;;;;17.36;57.14;98542.59;6951567;28;20243;-84
2023/05/11 02:08:53;;;;;;;3.43;1.70;;;;;;;17.21;57.78;98534.22;6951668;28;20699;-83
2023/05/11 02:12:16;;;;;;;4.53;2.07;;;;;;;16.98;58.46;98541.84;6951352;28;20204;-84
2023/05/11 02:15:40;;;;;;;1.90;1.70;;;;;;;16.71;59.65;98549.06;6951012;28;20393;-84
2023/05/11 02:19:02;;;;;;;2.10;2.00;;;;;;;16.51;60.08;98543.34;6951206;28;20267;-83
2023/05/11 02:22:25;;;;;;;2.10;2.00;;;;;;;16.67;60.11;98537.84;6951100;28;20223;-84
2023/05/11 02:25:47;;;;;;;2.67;1.70;;;;;;;16.88;59.46;98544.41;6951269;28;20318;-84
2023/05/11 02:29:08;;;;;;;1.80;1.70;;;;;;;15.90;60.95;98486.25;6951599;28;20354;-84
2023/05/11 02:32:32;;;;;;;7.13;1.83;;;;;;;16.40;61.09;98536.88;6950890;28;20299;-85
2023/05/11 02:35:55;;;;;;;2.67;2.00;;;;;;;16.29;60.33;98542.41;6951070;28;20693;-84
2023/05/11 02:39:21;;;;;;;3.77;2.20;;;;;;;16.47;60.25;98531.28;6950342;28;20693;-84
2023/05/11 02:42:43;;;;;;;2.70;2.00;;;;;;;16.14;60.16;98455.94;6950686;28;20193;-84
2023/05/11 02:46:07;;;;;;;2.10;2.00;;;;;;;16.47;60.59;98504.06;6950803;28;20263;-85
2023/05/11 02:49:31;;;;;;;2.87;2.17;;;;;;;16.74;59.88;98532.25;6950618;28;20202;-85
2023/05/11 02:52:55;;;;;;;2.73;1.83;;;;;;;16.40;59.83;98496.06;6950270;28;20272;-84
2023/05/11 02:56:18;;;;;;;2.00;1.90;;;;;;;16.79;60.06;98508.63;6950682;28;20227;-85
2023/05/11 02:59:40;;;;;;;2.33;1.80;;;;;;;17.20;58.58;98532.59;6950902;28;20257;-85
2023/05/11 03:03:02;;;;;;;1.90;1.80;;;;;;;17.13;58.73;98531.97;6965217;28;20270;-83
2023/05/11 03:06:23;;;;;;;3.43;2.00;;;;;;;17.16;58.76;98530.63;6965859;28;20229;-84
2023/05/11 03:09:45;;;;;;;4.43;1.67;;;;;;;17.06;58.67;98525.03;6950386;28;20205;-84
2023/05/11 03:13:09;;;;;;;1.80;1.70;;;;;;;17.07;58.50;98510.34;6949770;28;20338;-83
2023/05/11 03:16:31;;;;;;;2.00;1.90;;;;;;;17.23;57.72;98523.88;6950695;28;20313;-85
2023/05/11 03:19:53;;;;;;;4.07;2.20;;;;;;;17.02;58.44;98519.28;6949924;28;20354;-85
2023/05/11 03:23:15;;;;;;;3.57;2.30;;;;;;;16.69;58.71;98511.19;6948944;28;20300;-85
2023/05/11 03:26:36;;;;;;;3.30;2.50;;;;;;;16.78;59.68;98517.03;6949526;28;20819;-85
2023/05/11 03:30:00;;;;;;;4.03;2.60;;;;;;;16.63;59.55;98509.47;6950191;28;20237;-84
2023/05/11 03:33:22;;;;;;;2.50;2.30;;;;;;;16.98;59.09;98523.59;6950500;28;20220;-84
2023/05/11 03:36:45;;;;;;;3.87;2.57;;;;;;;16.83;59.64;98520.66;6950225;28;20844;-84
2023/05/11 03:40:08;;;;;;;3.03;2.10;;;;;;;16.86;58.72;98516.63;6950124;28;20240;-85
2023/05/11 03:43:32;;;;;;;4.17;2.50;;;;;;;16.51;60.09;98511.47;6955004;28;20221;-85
2023/05/11 03:46:55;;;;;;;2.50;2.30;;;;;;;16.64;58.92;98466.75;6951690;28;20326;-85
2023/05/11 03:50:17;;;;;;;5.20;2.30;;;;;;;16.78;59.71;98497.97;6952949;28;20236;-85
2023/05/11 03:53:39;;;;;;;3.57;2.10;;;;;;;17.05;58.98;98523.41;6952525;28;20656;-84
2023/05/11 03:57:00;;;;;;;3.17;2.60;;;;;;;17.00;58.86;98512.44;6951842;28;20246;-85
2023/05/11 04:00:22;;;;;;;2.60;2.27;;;;;;;16.77;59.51;98483.56;6952220;28;20266;-85
2023/05/11 04:03:52;;;;;;;3.47;2.50;;;;;;;16.71;60.06;98514.50;6965207;28;20246;-85
2023/05/11 04:07:13;;;;;;;4.53;2.50;;;;;;;16.84;59.83;98511.41;6978750;28;20675;-85
2023/05/11 04:10:37;;;;;;;7.93;2.93;;;;;;;16.90;59.79;98501.41;6958967;28;20722;-85
2023/05/11 04:13:58;;;;;;;3.83;2.50;;;;;;;16.72;59.44;98488.09;6951193;28;20204;-84
2023/05/11 04:17:20;;;;;;;2.77;2.10;;;;;;;17.05;58.45;98490.72;6951393;28;20288;-85
2023/05/11 04:20:42;;;;;;;8.00;6.90;;;;;;;16.90;59.06;98504.97;6951642;28;20267;-84
2023/05/11 04:24:05;;;;;;;5.53;4.23;;;;;;;17.05;59.20;98515.22;6951509;28;20216;-84
2023/05/11 04:27:26;;;;;;;4.73;2.13;;;;;;;17.10;58.57;98505.22;6972819;28;20241;-85
2023/05/11 04:30:52;;;;;;;4.10;2.50;;;;;;;16.77;59.42;98515.41;6975848;28;20275;-84
2023/05/11 04:34:14;;;;;;;3.10;2.30;;;;;;;16.95;59.78;98510.47;6977633;28;20656;-86
2023/05/11 04:37:36;;;;;;;6.17;2.30;;;;;;;17.38;58.81;98506.94;6978810;28;20226;-86
2023/05/11 04:41:03;;;;;;;3.97;2.93;;;;;;;17.18;59.19;98509.41;6977283;28;20337;-86
2023/05/11 04:44:24;;;;;;;4.17;3.23;;;;;;;17.26;59.05;98511.66;6953276;28;20330;-85
2023/05/11 04:47:46;;;;;;;2.97;2.63;;;;;;;17.21;59.28;98523.34;6950046;28;20767;-84
2023/05/11 04:51:07;;;;;;;6.47;3.90;;;;;;;17.18;58.71;98521.13;6950141;28;20216;-84
2023/05/11 04:54:30;;;;;;;2.23;2.10;;;;;;;17.30;59.02;98520.97;6949748;28;20220;-84
2023/05/11 04:57:52;;;;;;;2.10;1.90;;;;;;;17.34;58.08;98500.34;6949436;28;20233;-84
2023/05/11 05:01:13;;;;;;;4.40;2.10;;;;;;;17.35;58.18;98508.22;6960274;28;20209;-84
2023/05/11 05:04:35;;;;;;;2.40;2.20;;;;;;;17.29;58.55;98528.31;6961630;28;20232;-84
2023/05/11 05:07:56;;;;;;;2.47;2.00;;;;;;;17.52;57.62;98522.63;6957587;28;20247;-84
2023/05/11 05:11:20;;;;;;;3.43;1.80;;;;;;;17.48;57.29;98510.63;6963346;28;20278;-84
2023/05/11 05:14:41;;;;;;;2.00;1.90;;;;;;;17.52;57.97;98530.00;6967097;28;20205;-84
2023/05/11 05:18:03;;;;;;;2.00;1.90;;;;;;;17.47;58.00;98538.94;6988673;28;20287;-83
2023/05/11 05:21:25;;;;;;;3.70;1.90;;;;;;;17.55;57.63;98532.19;6976156;28;20304;-85
2023/05/11 05:24:46;;;;;;;6.07;2.40;;;;;;;17.38;57.43;98496.88;6975182;28;20209;-85
2023/05/11 05:28:09;;;;;;;2.17;1.97;;;;;;;17.62;57.75;98539.09;6975472;28;20358;-84
2023/05/11 05:31:30;;;;;;;2.70;2.00;;;;;;;17.71;58.10;98534.84;6947481;28;20281;-85
2023/05/11 05:34:52;;;;;;;3.87;3.47;;;;;;;17.55;57.57;98526.75;6947913;28;20293;-84
2023/05/11 05:38:13;;;;;;;6.20;3.10;;;;;;;17.49;56.96;98486.88;6948971;28;20554;-85
2023/05/11 05:41:36;;;;;;;6.67;3.80;;;;;;;17.62;57.30;98541.00;6957222;28;20294;-84
2023/05/11 05:44:59;;;;;;;3.67;2.10;;;;;;;17.60;57.83;98548.63;6962198;28;20197;-84
2023/05/11 05:48:20;;;;;;;2.70;2.20;;;;;;;17.53;57.76;98504.38;6963669;28;20286;-84
2023/05/11 05:51:42;;;;;;;4.17;2.20;;;;;;;17.75;57.04;98546.88;6972897;28;20248;-84
2023/05/11 05:55:04;;;;;;;2.37;1.87;;;;;;;17.72;57.51;98547.41;6974318;28;20351;-83
2023/05/11 05:58:26;;;;;;;2.20;2.10;;;;;;;18.00;57.05;98543.59;6973892;28;20244;-84
2023/05/11 06:01:49;;;;;;;2.03;1.90;;;;;;;17.86;57.26;98545.91;6960419;28;20267;-84
2023/05/11 06:05:10;;;;;;;2.50;2.30;;;;;;;17.66;57.61;98539.41;6968130;28;20237;-83
2023/05/11 06:08:32;;;;;;;7.20;3.57;;;;;;;17.91;57.71;98545.13;6973405;28;20301;-84
2023/05/11 06:11:53;;;;;;;5.27;2.13;;;;;;;17.88;58.02;98554.63;6972381;28;20296;-84
2023/05/11 06:15:15;;;;;;;2.13;2.00;;;;;;;18.15;56.92;98554.63;6974777;28;20226;-84
2023/05/11 06:18:38;;;;;;;3.47;2.30;;;;;;;17.96;58.11;98556.09;6974621;28;20205;-83
2023/05/11 06:22:00;;;;;;;2.30;2.10;;;;;;;18.11;57.60;98531.69;6974194;28;20681;-84
2023/05/11 06:25:21;;;;;;;2.33;2.20;;;;;;;18.25;57.59;98543.81;6974698;28;20360;-84
2023/05/11 06:28:43;;;;;;;4.53;2.70;;;;;;;18.33;56.72;98557.81;6977766;28;20205;-84
2023/05/11 06:32:05;;;;;;;2.93;2.37;;;;;;;18.16;56.77;98562.56;6973075;28;20294;-84
2023/05/11 06:35:29;;;;;;;2.63;2.43;;;;;;;18.15;57.25;98552.72;6980373;28;20309;-84
2023/05/11 06:38:50;;;;;;;3.20;2.60;;;;;;;18.39;55.98;98554.06;6972944;28;20209;-84
2023/05/11 06:42:12;;;;;;;4.50;2.50;;;;;;;18.19;57.13;98556.59;6952085;28;20211;-85
2023/05/11 06:45:33;;;;;;;3.10;2.30;;;;;;;17.57;56.16;98509.06;6952398;28;20326;-84
2023/05/11 06:48:55;;;;;;;2.90;2.40;;;;;;;17.82;55.91;98552.94;6952671;28;20195;-84
2023/05/11 06:52:18;;;;;;;2.70;2.50;;;;;;;17.56;57.06;98552.91;6968172;28;20304;-85
2023/05/11 06:55:40;;;;;;;3.10;2.80;;;;;;;17.52;56.81;98519.91;6960765;28;20218;-84
2023/05/11 06:59:01;;;;;;;2.97;2.57;;;;;;;18.00;56.99;98560.78;6965863;28;20217;-85
2023/05/11 07:02:23;;;;;;;3.40;3.07;;;;;;;17.97;56.97;98550.38;6979271;28;20289;-85
2023/05/11 07:05:44;;;;;;;5.57;2.87;;;;;;;18.13;56.83;98521.31;6965304;28;20316;-85
2023/05/11 07:09:07;;;;;;;3.73;3.03;;;;;;;18.17;56.30;98558.72;6951392;28;20245;-84
2023/05/11 07:12:29;;;;;;;3.33;3.00;;;;;;;18.30;56.57;98561.06;6964677;28;20672;-85
2023/05/11 07:15:51;;;;;;;4.53;2.60;;;;;;;18.50;55.35;98555.78;6953490;28;20227;-85
2023/05/11 07:19:13;;;;;;;3.40;2.70;;;;;;;18.68;54.89;98562.72;6951774;28;20221;-85
2023/05/11 07:22:35;;;;;;;2.80;2.60;;;;;;;18.48;55.24;98560.69;6950372;28;20195;-85
2023/05/11 07:25:58;;;;;;;3.50;3.20;;;;;;;18.61;55.14;98560.22;6952671;28;20321;-86
2023/05/11 07:29:20;;;;;;;4.50;3.00;;;;;;;18.62;54.86;98563.78;6997595;28;20233;-85
2023/05/11 07:32:41;;;;;;;3.27;2.97;;;;;;;17.79;54.77;98473.53;6980648;28;20198;-84
2023/05/11 07:36:03;;;;;;;3.27;2.80;;;;;;;18.03;56.34;98562.16;6977746;28;20348;-85
2023/05/11 07:39:24;;;;;;;5.00;3.20;;;;;;;18.00;55.86;98559.94;6963245;28;20236;-85
2023/05/11 07:42:47;;;;;;;4.30;3.60;;;;;;;17.79;58.00;98550.75;6970905;28;20206;-87
2023/05/11 07:46:09;;;;;;;3.03;2.83;;;;;;;17.99;57.33;98567.28;6977744;28;20230;-86
2023/05/11 07:49:30;;;;;;;5.10;4.23;;;;;;;18.35;56.67;98563.84;6978826;28;20206;-87
2023/05/11 07:52:52;;;;;;;3.50;3.20;;;;;;;18.09;56.33;98539.28;6975895;28;20200;-88
2023/05/11 07:56:13;;;;;;;4.60;3.07;;;;;;;18.56;55.97;98571.13;6978985;28;20287;-86
2023/05/11 07:59:36;;;;;;;3.17;2.93;;;;;;;18.39;55.71;98567.69;6979507;28;20702;-86
2023/05/11 08:02:58;;;;;;;4.53;3.30;;;;;;;17.56;57.86;98490.22;6978898;28;20268;-86
2023/05/11 08:06:20;;;;;;;3.00;2.70;;;;;;;17.56;57.19;98547.47;6978943;28;20236;-87
2023/05/11 08:09:41;;;;;;;3.50;3.20;;;;;;;18.20;57.26;98562.84;6979326;28;20206;-86
2023/05/11 08:13:03;;;;;;;5.13;3.60;;;;;;;18.10;56.20;98511.75;6984615;28;20208;-87
2023/05/11 08:16:26;;;;;;;3.37;3.07;;;;;;;18.43;55.70;98535.25;6983293;28;20267;-86
2023/05/11 08:19:47;;;;;;;4.20;3.40;;;;;;;18.44;57.46;98562.28;6978587;28;20198;-86
2023/05/11 08:23:15;;;;;;;5.73;3.30;;;;;;;18.29;55.73;98543.00;6977913;28;20300;-86
2023/05/11 08:26:37;;;;;;;3.20;2.83;;;;;;;18.37;55.28;98471.59;6977487;28;20320;-86
2023/05/11 08:29:59;;;;;;;8.23;3.47;;;;;;;18.78;54.27;98499.97;6977946;28;20927;-86
2023/05/11 08:33:22;;;;;;;4.20;3.00;;;;;;;19.02;54.30;98550.38;6977590;28;20219;-85
2023/05/11 08:36:44;;;;;;;3.20;2.90;;;;;;;18.95;55.90;98553.38;6977929;28;20760;-86
2023/05/11 08:40:07;;;;;;;3.87;3.30;;;;;;;19.21;55.39;98549.69;6975989;28;20244;-85
2023/05/11 08:43:29;;;;;;;3.17;2.87;;;;;;;18.93;52.87;98517.28;6958810;28;20218;-85
2023/05/11 08:46:53;;;;;;;3.20;2.90;;;;;;;19.56;52.54;98560.78;6970829;28;20240;-87
2023/05/11 08:50:16;;;;;;;4.13;3.70;;;;;;;19.39;54.02;98576.56;6977435;28;20300;-88
2023/05/11 08:53:37;;;;;;;4.73;3.00;;;;;;;19.57;51.27;98515.13;6977331;28;20202;-87
2023/05/11 08:57:01;;;;;;;5.80;3.30;;;;;;;19.37;52.06;98570.56;6976482;28;20230;-87
2023/05/11 09:00:23;;;;;;;4.13;2.60;;;;;;;19.21;51.93;98507.88;6976180;28;20283;-86
2023/05/11 09:03:45;;;;;;;3.00;2.70;;;;;;;19.55;52.33;98515.38;6976584;28;20199;-84
2023/05/11 09:07:08;;;;;;;7.10;2.90;;;;;;;20.16;50.91;98560.13;6976250;28;20239;-85
2023/05/11 09:10:30;;;;;;;4.40;2.67;;;;;;;20.13;51.43;98564.25;6974777;28;20202;-85
2023/05/11 09:13:51;;;;;;;3.47;2.93;;;;;;;20.26;51.32;98551.91;6969350;28;20198;-84
2023/05/11 09:17:13;;;;;;;4.73;3.80;;;;;;;19.05;55.80;98536.19;6959772;28;20230;-85
2023/05/11 09:20:35;;;;;;;4.13;2.87;;;;;;;19.62;52.24;98532.34;6948354;28;20580;-84
2023/05/11 09:23:59;;;;;;;6.57;3.10;;;;;;;20.03;51.96;98571.56;6954639;28;20292;-84
2023/05/11 09:27:24;;;;;;;3.37;3.00;;;;;;;19.45;53.03;98550.88;6998433;28;20230;-85
2023/05/11 09:30:46;;;;;;;4.10;2.90;;;;;;;19.56;52.41;98549.00;6961027;28;20211;-86
2023/05/11 09:34:12;;;;;;;3.47;3.17;;;;;;;19.58;53.42;98561.31;6948174;28;20211;-85
2023/05/11 09:37:34;;;;;;;3.30;3.00;;;;;;;19.51;52.52;98527.94;6949543;28;20716;-84
2023/05/11 09:40:57;;;;;;;3.13;2.90;;;;;;;19.60;53.45;98564.63;6983100;28;20190;-85
2023/05/11 09:44:19;;;;;;;3.80;3.40;;;;;;;19.54;53.63;98543.00;6976817;28;20203;-83
2023/05/11 09:47:40;;;;;;;3.10;2.70;;;;;;;19.40;52.07;98558.25;6975162;28;20728;-84
2023/05/11 09:51:03;;;;;;;3.93;2.53;;;;;;;19.74;51.82;98554.00;6975982;28;20210;-86
2023/05/11 09:54:25;;;;;;;5.20;3.20;;;;;;;19.36;53.50;98570.81;6970171;28;20724;-87
2023/05/11 09:57:53;;;;;;;3.90;3.30;;;;;;;19.64;54.11;98562.97;6948567;28;20297;-85
2023/05/11 10:01:15;;;;;;;3.57;3.27;;;;;;;19.63;53.73;98539.47;6948059;28;20192;-85
2023/05/11 10:04:37;;;;;;;3.27;2.90;;;;;;;19.95;51.80;98559.25;6951760;28;20262;-85
2023/05/11 10:07:59;;;;;;;3.17;2.97;;;;;;;20.10;52.26;98561.22;6957771;28;20325;-86
2023/05/11 10:11:22;;;;;;;3.07;2.80;;;;;;;19.89;50.92;98554.88;6971267;28;20206;-84
2023/05/11 10:14:45;;;;;;;3.93;3.17;;;;;;;19.98;51.60;98564.16;6979691;28;20195;-86
2023/05/11 10:18:07;;;;;;;4.23;3.40;;;;;;;19.59;53.46;98546.59;6971802;28;20210;-84
2023/05/11 10:21:28;;;;;;;3.10;2.80;;;;;;;19.36;53.29;98546.22;6967151;28;20206;-83
2023/05/11 10:24:50;;;;;;;3.00;2.80;;;;;;;19.22;53.85;98561.47;6963373;28;20238;-81
2023/05/11 10:28:12;;;;;;;2.83;2.63;;;;;;;19.54;52.05;98554.75;6980255;28;20227;-81
2023/05/11 10:31:35;;;;;;;4.33;3.93;;;;;;;19.20;55.67;98541.72;6980458;28;20313;-82
2023/05/11 10:34:57;;;;;;;3.43;3.13;;;;;;;19.51;53.68;98557.22;6979777;28;20203;-81
2023/05/11 10:38:20;;;;;;;3.20;3.00;;;;;;;19.45;53.35;98539.16;6954345;28;20286;-82
2023/05/11 10:41:50;;;;;;;3.27;2.97;;;;;;;19.42;52.78;98535.03;6952333;28;20206;-81
2023/05/11 10:45:20;;;;;;;3.80;2.80;;;;;;;19.47;52.75;98551.47;6952805;28;20226;-82
2023/05/11 10:49:05;;;;;;;3.67;2.70;;;;;;;19.51;53.16;98552.56;6958153;28;20217;-83
2023/05/11 10:52:38;;;;;;;2.80;2.60;;;;;;;19.49;52.58;98545.69;6979094;28;20215;-81
2023/05/11 10:56:19;;;;;;;3.10;2.90;;;;;;;19.59;52.89;98529.34;6973662;28;20218;-84
2023/05/11 11:00:08;;;;;;;3.03;2.33;;;;;;;19.79;52.16;98535.69;6971018;28;20227;-88
2023/05/11 11:03:30;;;;;;;3.70;2.47;;;;;;;19.49;51.70;98532.03;6965301;28;20219;-83
2023/05/11 11:07:06;;;;;;;2.73;2.37;;;;;;;19.92;52.81;98532.41;6971817;28;20234;-85
2023/05/11 11:10:32;;;;;;;2.73;2.53;;;;;;;19.88;52.36;98534.03;6979544;28;20218;-82
2023/05/11 11:13:57;;;;;;;2.87;2.37;;;;;;;19.78;51.29;98535.94;6978562;28;20285;-84
2023/05/11 11:17:23;;;;;;;2.23;2.03;;;;;;;19.81;51.31;98529.94;6979680;28;20350;-82
2023/05/11 11:20:48;;;;;;;3.07;2.47;;;;;;;19.69;52.03;98523.91;6978802;28;20288;-82
2023/05/11 11:24:44;;;;;;;2.30;2.20;;;;;;;19.75;50.29;98533.75;6977885;28;20328;-82
2023/05/11 11:28:06;;;;;;;2.20;2.00;;;;;;;19.57;53.13;98542.47;6978010;28;20741;-81
2023/05/11 11:31:28;;;;;;;2.53;2.13;;;;;;;19.19;53.24;98535.44;6978465;28;20264;-82
2023/05/11 11:34:50;;;;;;;3.13;2.30;;;;;;;18.76;54.80;98529.47;6977591;28;20293;-81
2023/05/11 11:38:13;;;;;;;2.57;2.13;;;;;;;19.44;54.01;98535.56;6978293;28;20264;-83
2023/05/11 11:41:36;;;;;;;3.80;2.43;;;;;;;19.14;52.99;98527.22;6951883;28;20245;-83
2023/05/11 11:45:29;;;;;;;2.97;2.30;;;;;;;19.10;53.84;98528.84;6950868;28;20301;-82
2023/05/11 11:48:51;;;;;;;5.20;3.63;;;;;;;18.84;53.40;98518.88;6950581;28;20214;-83
2023/05/11 11:52:13;;;;;;;3.27;2.70;;;;;;;18.25;55.97;98539.19;6963371;28;20219;-84
2023/05/11 11:55:46;;;;;;;5.70;3.33;;;;;;;18.85;56.00;98536.91;6974938;28;20253;-83
2023/05/11 11:59:12;;;;;;;2.63;2.43;;;;;;;18.79;53.65;98537.13;6977567;28;20644;-83
2023/05/11 12:02:34;;;;;;;3.60;3.10;;;;;;;19.66;53.85;98527.16;6976683;28;20191;-84
2023/05/11 12:05:59;;;;;;;3.00;2.80;;;;;;;19.53;53.54;98536.72;6976288;28;20225;-83
2023/05/11 12:09:20;;;;;;;2.40;2.20;;;;;;;19.15;53.21;98531.59;6972429;28;20226;-82
2023/05/11 12:12:44;;;;;;;3.07;2.43;;;;;;;18.64;53.99;98485.16;6975556;28;20251;-82
2023/05/11 12:16:12;;;;;;;2.20;2.10;;;;;;;19.47;52.90;98526.00;6974636;28;20318;-83
2023/05/11 12:19:34;;;;;;;2.10;1.90;;;;;;;18.86;51.67;98519.41;6966685;28;20210;-80
2023/05/11 12:22:55;;;;;;;2.17;2.07;;;;;;;18.69;52.09;98526.97;6974302;28;21160;-81
2023/05/11 12:26:20;;;;;;;2.33;2.00;;;;;;;19.10;51.37;98512.44;6975817;28;20227;-81
2023/05/11 12:29:44;;;;;;;2.37;2.17;;;;;;;18.26;53.25;98512.69;6977088;28;20230;-80
2023/05/11 12:33:08;;;;;;;2.27;2.17;;;;;;;18.97;52.78;98512.09;6969909;28;20207;-79
2023/05/11 12:36:30;;;;;;;5.03;2.13;;;;;;;19.56;51.69;98521.66;6977609;28;20300;-80
2023/05/11 12:39:54;;;;;;;2.27;2.07;;;;;;;19.33;51.21;98498.34;6976748;28;20691;-80
2023/05/11 12:43:17;;;;;;;1.80;1.70;;;;;;;19.20;51.13;98519.84;6976612;28;20340;-80
2023/05/11 12:46:39;;;;;;;1.83;1.70;;;;;;;18.80;49.19;98509.56;6978078;28;20570;-80
2023/05/11 12:50:02;;;;;;;1.90;1.80;;;;;;;18.14;50.87;98492.94;6977748;28;20217;-80
2023/05/11 12:53:23;;;;;;;2.10;2.00;;;;;;;19.47;49.71;98498.69;6969096;28;20285;-81
2023/05/11 12:56:46;;;;;;;2.40;2.00;;;;;;;18.87;50.30;98491.00;6958516;28;20223;-81
2023/05/11 13:00:10;;;;;;;3.37;3.07;;;;;;;19.25;51.64;98482.47;6975537;28;20198;-81
2023/05/11 13:03:34;;;;;;;1.77;1.67;;;;;;;19.58;49.34;98489.41;6967792;28;20252;-82
2023/05/11 13:06:56;;;;;;;2.73;2.40;;;;;;;20.17;50.89;98471.44;6970005;28;20226;-81
2023/05/11 13:10:24;;;;;;;3.50;2.30;;;;;;;20.36;49.92;98487.03;6975242;28;20204;-81
2023/05/11 13:13:46;;;;;;;2.77;2.07;;;;;;;19.96;48.94;98445.13;6975155;28;20187;-81
2023/05/11 13:17:07;;;;;;;2.17;1.97;;;;;;;20.73;48.09;98467.50;6975880;28;20234;-82
2023/05/11 13:20:30;;;;;;;2.20;2.00;;;;;;;20.09;49.66;98477.44;6971175;28;20209;-82
2023/05/11 13:23:54;;;;;;;1.80;1.70;;;;;;;20.48;48.68;98467.56;6975613;28;20257;-81
2023/05/11 13:27:15;;;;;;;1.70;1.60;;;;;;;20.23;47.36;98456.66;6976049;28;20300;-81
2023/05/11 13:30:37;;;;;;;1.80;1.70;;;;;;;20.51;46.93;98459.59;6974123;28;20305;-81
2023/05/11 13:33:59;;;;;;;1.80;1.70;;;;;;;20.43;47.21;98407.31;6975158;28;20278;-81
2023/05/11 13:37:20;;;;;;;2.00;1.90;;;;;;;20.05;46.24;98457.97;6975889;28;20592;-81
2023/05/11 13:40:43;;;;;;;2.93;1.90;;;;;;;20.88;45.68;98457.34;6967346;28;20215;-81
2023/05/11 13:44:05;;;;;;;3.33;1.80;;;;;;;20.91;44.87;98445.00;6974097;28;20239;-82
2023/05/11 13:47:26;;;;;;;1.67;1.57;;;;;;;20.41;44.09;98445.13;6974406;28;20240;-81
2023/05/11 13:50:48;;;;;;;3.37;1.60;;;;;;;20.42;45.60;98449.50;6973030;28;20267;-82
2023/05/11 13:54:09;;;;;;;2.00;1.80;;;;;;;20.32;46.55;98446.75;6971162;28;20273;-81
2023/05/11 13:57:32;;;;;;;1.80;1.70;;;;;;;20.72;44.87;98427.50;6945064;28;20314;-81
2023/05/11 14:00:54;;;;;;;1.83;1.73;;;;;;;20.89;43.56;98431.59;6944816;28;20229;-81
2023/05/11 14:04:18;;;;;;;1.80;1.70;;;;;;;21.04;43.58;98441.69;6960990;28;20187;-82
2023/05/11 14:07:40;;;;;;;2.17;1.80;;;;;;;19.97;43.82;98379.16;6957487;28;20288;-81
2023/05/11 14:11:02;;;;;;;1.60;1.50;;;;;;;20.61;43.09;98428.63;6946189;28;20206;-81
2023/05/11 14:14:25;;;;;;;2.60;1.80;;;;;;;20.62;42.49;98431.09;6947396;28;20282;-81
2023/05/11 14:17:47;;;;;;;1.40;1.30;;;;;;;20.60;42.13;98430.56;6947672;28;20243;-81
2023/05/11 14:21:08;;;;;;;1.67;1.57;;;;;;;20.58;42.92;98424.53;6948147;28;20214;-81
2023/05/11 14:24:30;;;;;;;1.20;1.20;;;;;;;20.64;41.05;98425.34;6946245;28;20296;-81
2023/05/11 14:27:53;;;;;;;1.37;1.33;;;;;;;19.98;41.42;98427.34;6947232;28;20748;-81
2023/05/11 14:31:16;;;;;;;1.83;1.47;;;;;;;19.86;43.13;98423.25;6965894;28;20225;-82
2023/05/11 14:34:37;;;;;;;1.33;1.33;;;;;;;20.52;41.85;98409.19;6973274;28;20279;-81
2023/05/11 14:37:59;;;;;;;1.80;1.70;;;;;;;20.48;44.33;98410.88;6973967;28;20776;-81
2023/05/11 14:41:21;;;;;;;1.80;1.70;;;;;;;20.04;43.97;98418.03;6973749;28;20321;-80
2023/05/11 14:44:43;;;;;;;1.80;1.70;;;;;;;19.84;43.97;98370.69;6973705;28;20222;-81
2023/05/11 14:48:06;;;;;;;2.93;1.57;;;;;;;19.85;44.61;98389.59;6973023;28;21035;-83
2023/05/11 14:51:28;;;;;;;1.90;1.80;;;;;;;19.88;44.76;98394.50;6979683;28;20203;-81
2023/05/11 14:54:49;;;;;;;2.37;1.67;;;;;;;19.62;44.87;98370.97;6979111;28;20263;-81
2023/05/11 14:58:11;;;;;;;2.00;1.73;;;;;;;19.80;44.87;98410.66;6976648;28;20248;-81
2023/05/11 15:01:32;;;;;;;1.80;1.70;;;;;;;20.05;44.56;98399.69;6979658;28;20278;-83
2023/05/11 15:04:55;;;;;;;1.30;1.20;;;;;;;20.12;44.62;98383.84;6978809;28;20730;-81
2023/05/11 15:08:17;;;;;;;1.90;1.80;;;;;;;20.26;43.96;98399.41;6978424;28;20699;-82
2023/05/11 15:11:38;;;;;;;1.73;1.63;;;;;;;20.94;42.01;98400.59;6978617;28;20259;-82
2023/05/11 15:15:00;;;;;;;1.67;1.50;;;;;;;20.99;42.17;98387.69;6976118;28;20348;-82
2023/05/11 15:18:21;;;;;;;2.00;1.30;;;;;;;19.66;44.19;98401.34;6978419;28;20203;-82
2023/05/11 15:21:44;;;;;;;2.13;1.70;;;;;;;20.35;42.78;98408.69;6978418;28;20272;-83
2023/05/11 15:25:07;;;;;;;1.50;1.40;;;;;;;20.02;43.02;98373.69;6979373;28;20233;-82
2023/05/11 15:28:28;;;;;;;2.70;1.70;;;;;;;20.08;42.41;98400.00;6976970;28;20307;-82
2023/05/11 15:31:50;;;;;;;1.60;1.50;;;;;;;18.86;45.07;98398.41;6972221;28;20230;-82
2023/05/11 15:35:13;;;;;;;1.63;1.53;;;;;;;19.36;44.74;98398.56;6979245;28;20590;-82
2023/05/11 15:38:36;;;;;;;2.20;1.40;;;;;;;19.78;43.62;98412.84;6977441;28;20202;-82
2023/05/11 15:41:57;;;;;;;1.70;1.60;;;;;;;19.88;43.79;98412.84;6977945;28;20210;-82
2023/05/11 15:45:19;;;;;;;1.70;1.60;;;;;;;20.40;42.42;98372.28;6967281;28;20290;-82
2023/05/11 15:48:40;;;;;;;1.43;1.33;;;;;;;19.84;43.41;98407.09;6949853;28;20269;-82
2023/05/11 15:52:02;;;;;;;1.87;1.70;;;;;;;20.22;43.17;98408.47;6949961;28;20342;-82
2023/05/11 15:55:24;;;;;;;1.63;1.53;;;;;;;21.03;41.30;98413.44;6951072;28;20288;-82
2023/05/11 15:58:46;;;;;;;2.80;2.00;;;;;;;20.03;43.85;98410.06;6977142;28;20305;-81